sensor_id;sensor_type;location;lat;lon;timestamp;P1;P2;P0
26720;PMS1003;15950;51.112;6.966;2022-07-22T00:00:58;003;002;
26720;PMS1003;15950;51.112;6.966;2022-07-22T00:02:58;003;003;
26720;PMS1003;15950;51.112;6.966;2022-07-22T00:04:58;005;003;
26720;PMS1003;15950;51.112;6.966;2022-07-22T00:06:59;003;003;
26720;PMS1003;15950;51.112;6.966;2022-07-22T00:08:59;005;003;
26720;PMS1003;15950;51.112;6.966;2022-07-22T00:10:59;004;003;
26720;PMS1003;15950;51.112;6.966;2022-07-22T00:12:59;003;002;
26720;PMS1003;15950;51.112;6.966;2022-07-22T00:14:59;002;001;
26720;PMS1003;15950;51.112;6.966;2022-07-22T00:17:00;002;002;
26720;PMS1003;15950;51.112;6.966;2022-07-22T00:19:00;005;003;
26720;PMS1003;15950;51.112;6.966;2022-07-22T00:21:00;003;002;
26720;PMS1003;15950;51.112;6.966;2022-07-22T00:23:00;003;002;
26720;PMS1003;15950;51.112;6.966;2022-07-22T00:25:01;005;004;
26720;PMS1003;15950;51.112;6.966;2022-07-22T00:27:01;002;001;
26720;PMS1003;15950;51.112;6.966;2022-07-22T00:29:02;003;002;
26720;PMS1003;15950;51.112;6.966;2022-07-22T00:31:02;003;002;
26720;PMS1003;15950;51.112;6.966;2022-07-22T00:33:03;000;000;
26720;PMS1003;15950;51.112;6.966;2022-07-22T00:35:03;000;000;
26720;PMS1003;15950;51.112;6.966;2022-07-22T00:37:03;003;002;
26720;PMS1003;15950;51.112;6.966;2022-07-22T00:39:03;003;002;
26720;PMS1003;15950;51.112;6.966;2022-07-22T00:41:03;002;002;
26720;PMS1003;15950;51.112;6.966;2022-07-22T00:43:03;003;002;
26720;PMS1003;15950;51.112;6.966;2022-07-22T00:45:04;003;002;
26720;PMS1003;15950;51.112;6.966;2022-07-22T00:47:04;003;002;
26720;PMS1003;15950;51.112;6.966;2022-07-22T00:49:05;002;001;
26720;PMS1003;15950;51.112;6.966;2022-07-22T00:51:05;002;001;
26720;PMS1003;15950;51.112;6.966;2022-07-22T00:53:05;002;001;
26720;PMS1003;15950;51.112;6.966;2022-07-22T00:55:06;006;004;
26720;PMS1003;15950;51.112;6.966;2022-07-22T00:57:06;002;001;
26720;PMS1003;15950;51.112;6.966;2022-07-22T00:59:07;002;001;
26720;PMS1003;15950;51.112;6.966;2022-07-22T01:01:06;002;001;
26720;PMS1003;15950;51.112;6.966;2022-07-22T01:03:06;005;003;
26720;PMS1003;15950;51.112;6.966;2022-07-22T01:05:09;004;004;
26720;PMS1003;15950;51.112;6.966;2022-07-22T01:07:07;003;002;
26720;PMS1003;15950;51.112;6.966;2022-07-22T01:09:07;004;003;
26720;PMS1003;15950;51.112;6.966;2022-07-22T01:11:09;005;004;
26720;PMS1003;15950;51.112;6.966;2022-07-22T01:13:08;005;003;
26720;PMS1003;15950;51.112;6.966;2022-07-22T01:15:08;003;002;
26720;PMS1003;15950;51.112;6.966;2022-07-22T01:17:11;005;004;
26720;PMS1003;15950;51.112;6.966;2022-07-22T01:19:08;005;005;
26720;PMS1003;15950;51.112;6.966;2022-07-22T01:21:09;002;001;
26720;PMS1003;15950;51.112;6.966;2022-07-22T01:23:09;003;002;
26720;PMS1003;15950;51.112;6.966;2022-07-22T01:25:09;002;001;
26720;PMS1003;15950;51.112;6.966;2022-07-22T01:27:09;002;001;
26720;PMS1003;15950;51.112;6.966;2022-07-22T01:29:10;000;000;
26720;PMS1003;15950;51.112;6.966;2022-07-22T01:31:10;002;001;
26720;PMS1003;15950;51.112;6.966;2022-07-22T01:33:10;001;001;
26720;PMS1003;15950;51.112;6.966;2022-07-22T01:35:11;004;003;
26720;PMS1003;15950;51.112;6.966;2022-07-22T01:37:11;003;002;
26720;PMS1003;15950;51.112;6.966;2022-07-22T01:39:11;005;003;
26720;PMS1003;15950;51.112;6.966;2022-07-22T01:41:12;002;001;
26720;PMS1003;15950;51.112;6.966;2022-07-22T01:43:12;003;002;
26720;PMS1003;15950;51.112;6.966;2022-07-22T01:45:13;007;005;
26720;PMS1003;15950;51.112;6.966;2022-07-22T01:47:13;005;004;
26720;PMS1003;15950;51.112;6.966;2022-07-22T01:49:14;006;004;
26720;PMS1003;15950;51.112;6.966;2022-07-22T01:51:14;005;004;
26720;PMS1003;15950;51.112;6.966;2022-07-22T01:53:14;005;003;
26720;PMS1003;15950;51.112;6.966;2022-07-22T01:55:14;007;005;
26720;PMS1003;15950;51.112;6.966;2022-07-22T01:57:15;004;003;
26720;PMS1003;15950;51.112;6.966;2022-07-22T01:59:15;008;006;
26720;PMS1003;15950;51.112;6.966;2022-07-22T02:01:15;010;007;
26720;PMS1003;15950;51.112;6.966;2022-07-22T02:03:15;009;006;
26720;PMS1003;15950;51.112;6.966;2022-07-22T02:05:16;007;005;
26720;PMS1003;15950;51.112;6.966;2022-07-22T02:07:16;010;007;
26720;PMS1003;15950;51.112;6.966;2022-07-22T02:09:16;006;006;
26720;PMS1003;15950;51.112;6.966;2022-07-22T02:11:17;005;003;
26720;PMS1003;15950;51.112;6.966;2022-07-22T02:13:17;004;003;
26720;PMS1003;15950;51.112;6.966;2022-07-22T02:15:17;006;004;
26720;PMS1003;15950;51.112;6.966;2022-07-22T02:17:17;003;002;
26720;PMS1003;15950;51.112;6.966;2022-07-22T02:19:18;002;001;
26720;PMS1003;15950;51.112;6.966;2022-07-22T02:21:18;007;005;
26720;PMS1003;15950;51.112;6.966;2022-07-22T02:23:19;003;002;
26720;PMS1003;15950;51.112;6.966;2022-07-22T02:25:19;007;005;
26720;PMS1003;15950;51.112;6.966;2022-07-22T02:27:19;005;003;
26720;PMS1003;15950;51.112;6.966;2022-07-22T02:29:19;004;003;
26720;PMS1003;15950;51.112;6.966;2022-07-22T02:31:19;006;005;
26720;PMS1003;15950;51.112;6.966;2022-07-22T02:33:20;005;003;
26720;PMS1003;15950;51.112;6.966;2022-07-22T02:35:20;009;006;
26720;PMS1003;15950;51.112;6.966;2022-07-22T02:37:20;006;004;
26720;PMS1003;15950;51.112;6.966;2022-07-22T02:39:20;006;004;
26720;PMS1003;15950;51.112;6.966;2022-07-22T02:41:21;006;004;
26720;PMS1003;15950;51.112;6.966;2022-07-22T02:43:21;007;006;
26720;PMS1003;15950;51.112;6.966;2022-07-22T02:45:22;008;006;
26720;PMS1003;15950;51.112;6.966;2022-07-22T02:47:22;006;004;
26720;PMS1003;15950;51.112;6.966;2022-07-22T02:49:22;009;006;
26720;PMS1003;15950;51.112;6.966;2022-07-22T02:51:22;007;005;
26720;PMS1003;15950;51.112;6.966;2022-07-22T02:53:23;009;006;
26720;PMS1003;15950;51.112;6.966;2022-07-22T02:55:23;006;004;
26720;PMS1003;15950;51.112;6.966;2022-07-22T02:57:23;010;007;
26720;PMS1003;15950;51.112;6.966;2022-07-22T02:59:23;010;007;
26720;PMS1003;15950;51.112;6.966;2022-07-22T03:01:23;007;005;
26720;PMS1003;15950;51.112;6.966;2022-07-22T03:03:24;009;007;
26720;PMS1003;15950;51.112;6.966;2022-07-22T03:05:24;008;007;
26720;PMS1003;15950;51.112;6.966;2022-07-22T03:07:24;006;004;
26720;PMS1003;15950;51.112;6.966;2022-07-22T03:09:24;009;008;
26720;PMS1003;15950;51.112;6.966;2022-07-22T03:11:25;012;010;
26720;PMS1003;15950;51.112;6.966;2022-07-22T03:13:25;007;005;
26720;PMS1003;15950;51.112;6.966;2022-07-22T03:15:25;007;005;
26720;PMS1003;15950;51.112;6.966;2022-07-22T03:17:25;010;007;
26720;PMS1003;15950;51.112;6.966;2022-07-22T03:19:26;009;006;
26720;PMS1003;15950;51.112;6.966;2022-07-22T03:21:26;008;007;
26720;PMS1003;15950;51.112;6.966;2022-07-22T03:23:26;007;005;
26720;PMS1003;15950;51.112;6.966;2022-07-22T03:25:26;009;007;
26720;PMS1003;15950;51.112;6.966;2022-07-22T03:27:28;010;009;
26720;PMS1003;15950;51.112;6.966;2022-07-22T03:29:27;007;005;
26720;PMS1003;15950;51.112;6.966;2022-07-22T03:31:27;006;004;
26720;PMS1003;15950;51.112;6.966;2022-07-22T03:33:27;008;006;
26720;PMS1003;15950;51.112;6.966;2022-07-22T03:35:28;007;005;
26720;PMS1003;15950;51.112;6.966;2022-07-22T03:37:28;009;007;
26720;PMS1003;15950;51.112;6.966;2022-07-22T03:39:28;005;003;
26720;PMS1003;15950;51.112;6.966;2022-07-22T03:41:28;007;005;
26720;PMS1003;15950;51.112;6.966;2022-07-22T03:43:29;007;005;
26720;PMS1003;15950;51.112;6.966;2022-07-22T03:45:29;010;008;
26720;PMS1003;15950;51.112;6.966;2022-07-22T03:47:29;007;005;
26720;PMS1003;15950;51.112;6.966;2022-07-22T03:49:30;007;005;
26720;PMS1003;15950;51.112;6.966;2022-07-22T03:51:30;006;005;
26720;PMS1003;15950;51.112;6.966;2022-07-22T03:53:30;009;007;
26720;PMS1003;15950;51.112;6.966;2022-07-22T03:55:31;008;006;
26720;PMS1003;15950;51.112;6.966;2022-07-22T03:57:31;009;006;
26720;PMS1003;15950;51.112;6.966;2022-07-22T03:59:31;009;006;
26720;PMS1003;15950;51.112;6.966;2022-07-22T04:01:31;010;008;
26720;PMS1003;15950;51.112;6.966;2022-07-22T04:03:32;009;006;
26720;PMS1003;15950;51.112;6.966;2022-07-22T04:05:32;007;005;
26720;PMS1003;15950;51.112;6.966;2022-07-22T04:07:32;007;005;
26720;PMS1003;15950;51.112;6.966;2022-07-22T04:09:32;009;006;
26720;PMS1003;15950;51.112;6.966;2022-07-22T04:11:32;006;004;
26720;PMS1003;15950;51.112;6.966;2022-07-22T04:13:33;013;009;
26720;PMS1003;15950;51.112;6.966;2022-07-22T04:15:33;009;006;
26720;PMS1003;15950;51.112;6.966;2022-07-22T04:17:33;007;005;
26720;PMS1003;15950;51.112;6.966;2022-07-22T04:19:33;012;008;
26720;PMS1003;15950;51.112;6.966;2022-07-22T04:21:33;009;007;
26720;PMS1003;15950;51.112;6.966;2022-07-22T04:23:34;013;010;
26720;PMS1003;15950;51.112;6.966;2022-07-22T04:25:34;012;008;
26720;PMS1003;15950;51.112;6.966;2022-07-22T04:27:35;010;007;
26720;PMS1003;15950;51.112;6.966;2022-07-22T04:29:34;012;008;
26720;PMS1003;15950;51.112;6.966;2022-07-22T04:31:35;014;010;
26720;PMS1003;15950;51.112;6.966;2022-07-22T04:33:35;016;011;
26720;PMS1003;15950;51.112;6.966;2022-07-22T04:35:35;012;008;
26720;PMS1003;15950;51.112;6.966;2022-07-22T04:37:35;017;012;
26720;PMS1003;15950;51.112;6.966;2022-07-22T04:39:36;016;013;
26720;PMS1003;15950;51.112;6.966;2022-07-22T04:41:36;013;009;
26720;PMS1003;15950;51.112;6.966;2022-07-22T04:43:36;013;009;
26720;PMS1003;15950;51.112;6.966;2022-07-22T04:45:36;016;013;
26720;PMS1003;15950;51.112;6.966;2022-07-22T04:47:37;017;012;
26720;PMS1003;15950;51.112;6.966;2022-07-22T04:49:37;013;009;
26720;PMS1003;15950;51.112;6.966;2022-07-22T04:51:37;013;009;
26720;PMS1003;15950;51.112;6.966;2022-07-22T04:53:39;013;010;
26720;PMS1003;15950;51.112;6.966;2022-07-22T04:55:38;015;012;
26720;PMS1003;15950;51.112;6.966;2022-07-22T04:57:38;013;009;
26720;PMS1003;15950;51.112;6.966;2022-07-22T04:59:38;009;008;
26720;PMS1003;15950;51.112;6.966;2022-07-22T05:01:39;013;010;
26720;PMS1003;15950;51.112;6.966;2022-07-22T05:03:40;014;011;
26720;PMS1003;15950;51.112;6.966;2022-07-22T05:05:39;018;014;
26720;PMS1003;15950;51.112;6.966;2022-07-22T05:07:39;013;009;
26720;PMS1003;15950;51.112;6.966;2022-07-22T05:09:39;014;010;
26720;PMS1003;15950;51.112;6.966;2022-07-22T05:11:40;009;006;
26720;PMS1003;15950;51.112;6.966;2022-07-22T05:13:40;005;003;
26720;PMS1003;15950;51.112;6.966;2022-07-22T05:15:40;007;005;
26720;PMS1003;15950;51.112;6.966;2022-07-22T05:17:41;004;003;
26720;PMS1003;15950;51.112;6.966;2022-07-22T05:19:41;000;000;
26720;PMS1003;15950;51.112;6.966;2022-07-22T05:21:41;000;000;
26720;PMS1003;15950;51.112;6.966;2022-07-22T05:23:41;003;002;
26720;PMS1003;15950;51.112;6.966;2022-07-22T05:25:41;001;001;
26720;PMS1003;15950;51.112;6.966;2022-07-22T05:29:42;000;000;
26720;PMS1003;15950;51.112;6.966;2022-07-22T05:31:42;000;000;
26720;PMS1003;15950;51.112;6.966;2022-07-22T05:33:42;000;000;
26720;PMS1003;15950;51.112;6.966;2022-07-22T05:35:42;001;001;
26720;PMS1003;15950;51.112;6.966;2022-07-22T05:37:43;000;000;
26720;PMS1003;15950;51.112;6.966;2022-07-22T05:39:43;002;001;
26720;PMS1003;15950;51.112;6.966;2022-07-22T05:41:43;001;001;
26720;PMS1003;15950;51.112;6.966;2022-07-22T05:43:44;002;001;
26720;PMS1003;15950;51.112;6.966;2022-07-22T05:45:44;002;001;
26720;PMS1003;15950;51.112;6.966;2022-07-22T05:47:44;002;002;
26720;PMS1003;15950;51.112;6.966;2022-07-22T05:49:45;002;001;
26720;PMS1003;15950;51.112;6.966;2022-07-22T05:51:45;000;000;
26720;PMS1003;15950;51.112;6.966;2022-07-22T05:53:45;000;000;
26720;PMS1003;15950;51.112;6.966;2022-07-22T05:55:45;001;001;
26720;PMS1003;15950;51.112;6.966;2022-07-22T05:57:45;001;001;
26720;PMS1003;15950;51.112;6.966;2022-07-22T05:59:47;000;000;
26720;PMS1003;15950;51.112;6.966;2022-07-22T06:01:46;003;002;
26720;PMS1003;15950;51.112;6.966;2022-07-22T06:03:46;004;003;
26720;PMS1003;15950;51.112;6.966;2022-07-22T06:05:46;006;004;
26720;PMS1003;15950;51.112;6.966;2022-07-22T06:07:47;000;000;
26720;PMS1003;15950;51.112;6.966;2022-07-22T06:09:47;000;000;
26720;PMS1003;15950;51.112;6.966;2022-07-22T06:11:48;003;002;
26720;PMS1003;15950;51.112;6.966;2022-07-22T06:13:48;000;000;
26720;PMS1003;15950;51.112;6.966;2022-07-22T06:15:48;000;000;
26720;PMS1003;15950;51.112;6.966;2022-07-22T06:17:48;001;001;
26720;PMS1003;15950;51.112;6.966;2022-07-22T06:19:49;002;001;
26720;PMS1003;15950;51.112;6.966;2022-07-22T06:21:49;000;000;
26720;PMS1003;15950;51.112;6.966;2022-07-22T06:23:49;002;001;
26720;PMS1003;15950;51.112;6.966;2022-07-22T06:25:49;002;001;
26720;PMS1003;15950;51.112;6.966;2022-07-22T06:27:50;000;000;
26720;PMS1003;15950;51.112;6.966;2022-07-22T06:29:50;002;002;
26720;PMS1003;15950;51.112;6.966;2022-07-22T06:31:50;000;000;
26720;PMS1003;15950;51.112;6.966;2022-07-22T06:33:50;000;000;
26720;PMS1003;15950;51.112;6.966;2022-07-22T06:35:50;000;000;
26720;PMS1003;15950;51.112;6.966;2022-07-22T06:37:51;000;000;
26720;PMS1003;15950;51.112;6.966;2022-07-22T06:39:51;001;001;
26720;PMS1003;15950;51.112;6.966;2022-07-22T06:41:52;000;000;
26720;PMS1003;15950;51.112;6.966;2022-07-22T06:43:52;000;000;
26720;PMS1003;15950;51.112;6.966;2022-07-22T06:45:52;001;001;
26720;PMS1003;15950;51.112;6.966;2022-07-22T06:47:53;000;000;
26720;PMS1003;15950;51.112;6.966;2022-07-22T06:49:53;002;001;
26720;PMS1003;15950;51.112;6.966;2022-07-22T06:51:53;002;001;
26720;PMS1003;15950;51.112;6.966;2022-07-22T06:53:53;002;001;
26720;PMS1003;15950;51.112;6.966;2022-07-22T06:55:53;002;001;
26720;PMS1003;15950;51.112;6.966;2022-07-22T06:57:53;002;001;
26720;PMS1003;15950;51.112;6.966;2022-07-22T06:59:54;002;001;
26720;PMS1003;15950;51.112;6.966;2022-07-22T07:01:54;002;001;
26720;PMS1003;15950;51.112;6.966;2022-07-22T07:03:54;000;000;
26720;PMS1003;15950;51.112;6.966;2022-07-22T07:05:54;003;002;
26720;PMS1003;15950;51.112;6.966;2022-07-22T07:07:55;000;000;
26720;PMS1003;15950;51.112;6.966;2022-07-22T07:09:55;002;001;
26720;PMS1003;15950;51.112;6.966;2022-07-22T07:11:56;002;001;
26720;PMS1003;15950;51.112;6.966;2022-07-22T07:13:56;003;003;
26720;PMS1003;15950;51.112;6.966;2022-07-22T07:15:57;005;003;
26720;PMS1003;15950;51.112;6.966;2022-07-22T07:17:56;007;005;
26720;PMS1003;15950;51.112;6.966;2022-07-22T07:19:57;005;003;
26720;PMS1003;15950;51.112;6.966;2022-07-22T07:21:57;002;001;
26720;PMS1003;15950;51.112;6.966;2022-07-22T07:23:58;005;003;
26720;PMS1003;15950;51.112;6.966;2022-07-22T07:25:58;005;003;
26720;PMS1003;15950;51.112;6.966;2022-07-22T07:27:58;003;002;
26720;PMS1003;15950;51.112;6.966;2022-07-22T07:29:58;007;005;
26720;PMS1003;15950;51.112;6.966;2022-07-22T07:31:59;007;005;
26720;PMS1003;15950;51.112;6.966;2022-07-22T07:33:59;005;004;
26720;PMS1003;15950;51.112;6.966;2022-07-22T07:35:59;007;006;
26720;PMS1003;15950;51.112;6.966;2022-07-22T07:38:00;007;005;
26720;PMS1003;15950;51.112;6.966;2022-07-22T07:40:00;007;005;
26720;PMS1003;15950;51.112;6.966;2022-07-22T07:42:00;007;005;
26720;PMS1003;15950;51.112;6.966;2022-07-22T07:44:01;007;005;
26720;PMS1003;15950;51.112;6.966;2022-07-22T07:46:01;006;004;
26720;PMS1003;15950;51.112;6.966;2022-07-22T07:48:02;007;005;
26720;PMS1003;15950;51.112;6.966;2022-07-22T07:50:05;009;006;
26720;PMS1003;15950;51.112;6.966;2022-07-22T07:52:03;007;005;
26720;PMS1003;15950;51.112;6.966;2022-07-22T07:54:03;010;007;
26720;PMS1003;15950;51.112;6.966;2022-07-22T07:56:03;010;007;
26720;PMS1003;15950;51.112;6.966;2022-07-22T07:58:03;006;005;
26720;PMS1003;15950;51.112;6.966;2022-07-22T08:00:04;005;003;
26720;PMS1003;15950;51.112;6.966;2022-07-22T08:02:04;006;005;
26720;PMS1003;15950;51.112;6.966;2022-07-22T08:04:04;006;005;
26720;PMS1003;15950;51.112;6.966;2022-07-22T08:06:05;006;004;
26720;PMS1003;15950;51.112;6.966;2022-07-22T08:08:06;004;003;
26720;PMS1003;15950;51.112;6.966;2022-07-22T08:10:06;005;003;
26720;PMS1003;15950;51.112;6.966;2022-07-22T08:12:06;007;006;
26720;PMS1003;15950;51.112;6.966;2022-07-22T08:14:06;003;002;
26720;PMS1003;15950;51.112;6.966;2022-07-22T08:16:06;003;002;
26720;PMS1003;15950;51.112;6.966;2022-07-22T08:18:06;003;003;
26720;PMS1003;15950;51.112;6.966;2022-07-22T08:20:07;003;002;
26720;PMS1003;15950;51.112;6.966;2022-07-22T08:22:07;003;002;
26720;PMS1003;15950;51.112;6.966;2022-07-22T08:24:08;004;003;
26720;PMS1003;15950;51.112;6.966;2022-07-22T08:26:07;005;004;
26720;PMS1003;15950;51.112;6.966;2022-07-22T08:28:07;002;001;
26720;PMS1003;15950;51.112;6.966;2022-07-22T08:30:08;005;003;
26720;PMS1003;15950;51.112;6.966;2022-07-22T08:32:08;005;005;
26720;PMS1003;15950;51.112;6.966;2022-07-22T08:34:08;003;002;
26720;PMS1003;15950;51.112;6.966;2022-07-22T08:36:08;005;003;
26720;PMS1003;15950;51.112;6.966;2022-07-22T08:38:09;002;001;
26720;PMS1003;15950;51.112;6.966;2022-07-22T08:40:09;000;000;
26720;PMS1003;15950;51.112;6.966;2022-07-22T08:42:09;002;001;
26720;PMS1003;15950;51.112;6.966;2022-07-22T08:44:09;004;004;
26720;PMS1003;15950;51.112;6.966;2022-07-22T08:46:10;005;003;
26720;PMS1003;15950;51.112;6.966;2022-07-22T08:48:10;003;002;
26720;PMS1003;15950;51.112;6.966;2022-07-22T08:50:11;005;004;
26720;PMS1003;15950;51.112;6.966;2022-07-22T08:52:11;003;002;
26720;PMS1003;15950;51.112;6.966;2022-07-22T08:54:11;002;001;
26720;PMS1003;15950;51.112;6.966;2022-07-22T08:56:12;004;004;
26720;PMS1003;15950;51.112;6.966;2022-07-22T08:58:12;002;001;
26720;PMS1003;15950;51.112;6.966;2022-07-22T09:00:14;003;002;
26720;PMS1003;15950;51.112;6.966;2022-07-22T09:02:13;004;003;
26720;PMS1003;15950;51.112;6.966;2022-07-22T09:04:13;003;002;
26720;PMS1003;15950;51.112;6.966;2022-07-22T09:06:13;002;001;
26720;PMS1003;15950;51.112;6.966;2022-07-22T09:08:14;002;001;
26720;PMS1003;15950;51.112;6.966;2022-07-22T09:10:16;002;001;
26720;PMS1003;15950;51.112;6.966;2022-07-22T09:12:15;002;001;
26720;PMS1003;15950;51.112;6.966;2022-07-22T09:14:15;000;000;
26720;PMS1003;15950;51.112;6.966;2022-07-22T09:16:15;002;001;
26720;PMS1003;15950;51.112;6.966;2022-07-22T09:18:16;002;001;
26720;PMS1003;15950;51.112;6.966;2022-07-22T09:20:17;002;001;
26720;PMS1003;15950;51.112;6.966;2022-07-22T09:28:19;006;004;
26720;PMS1003;15950;51.112;6.966;2022-07-22T09:30:22;002;001;
26720;PMS1003;15950;51.112;6.966;2022-07-22T09:32:19;003;003;
26720;PMS1003;15950;51.112;6.966;2022-07-22T09:36:19;002;001;
26720;PMS1003;15950;51.112;6.966;2022-07-22T09:38:26;000;000;
26720;PMS1003;15950;51.112;6.966;2022-07-22T09:40:21;000;000;
26720;PMS1003;15950;51.112;6.966;2022-07-22T09:42:20;000;000;
26720;PMS1003;15950;51.112;6.966;2022-07-22T09:44:23;000;000;
26720;PMS1003;15950;51.112;6.966;2022-07-22T09:48:21;002;001;
26720;PMS1003;15950;51.112;6.966;2022-07-22T09:52:21;002;001;
26720;PMS1003;15950;51.112;6.966;2022-07-22T09:54:22;002;001;
26720;PMS1003;15950;51.112;6.966;2022-07-22T09:56:22;002;001;
26720;PMS1003;15950;51.112;6.966;2022-07-22T09:58:22;003;002;
26720;PMS1003;15950;51.112;6.966;2022-07-22T10:00:23;002;001;
26720;PMS1003;15950;51.112;6.966;2022-07-22T10:02:23;000;000;
26720;PMS1003;15950;51.112;6.966;2022-07-22T10:04:23;000;000;
26720;PMS1003;15950;51.112;6.966;2022-07-22T10:06:23;003;002;
26720;PMS1003;15950;51.112;6.966;2022-07-22T10:08:27;003;002;
26720;PMS1003;15950;51.112;6.966;2022-07-22T10:10:25;002;001;
26720;PMS1003;15950;51.112;6.966;2022-07-22T10:12:24;000;000;
26720;PMS1003;15950;51.112;6.966;2022-07-22T10:14:24;002;001;
26720;PMS1003;15950;51.112;6.966;2022-07-22T10:16:25;003;002;
26720;PMS1003;15950;51.112;6.966;2022-07-22T10:18:25;000;000;
26720;PMS1003;15950;51.112;6.966;2022-07-22T10:20:26;002;001;
26720;PMS1003;15950;51.112;6.966;2022-07-22T10:24:26;002;001;
26720;PMS1003;15950;51.112;6.966;2022-07-22T10:30:28;003;002;
26720;PMS1003;15950;51.112;6.966;2022-07-22T10:32:27;007;005;
26720;PMS1003;15950;51.112;6.966;2022-07-22T10:34:27;000;000;
26720;PMS1003;15950;51.112;6.966;2022-07-22T10:38:29;003;002;
26720;PMS1003;15950;51.112;6.966;2022-07-22T10:40:29;003;002;
26720;PMS1003;15950;51.112;6.966;2022-07-22T10:42:59;006;004;
26720;PMS1003;15950;51.112;6.966;2022-07-22T10:52:34;004;003;
26720;PMS1003;15950;51.112;6.966;2022-07-22T10:54:30;005;003;
26720;PMS1003;15950;51.112;6.966;2022-07-22T10:56:31;006;005;
26720;PMS1003;15950;51.112;6.966;2022-07-22T11:00:31;005;003;
26720;PMS1003;15950;51.112;6.966;2022-07-22T11:02:33;004;004;
26720;PMS1003;15950;51.112;6.966;2022-07-22T11:04:32;007;005;
26720;PMS1003;15950;51.112;6.966;2022-07-22T11:06:33;005;005;
26720;PMS1003;15950;51.112;6.966;2022-07-22T11:08:36;005;004;
26720;PMS1003;15950;51.112;6.966;2022-07-22T11:10:34;005;004;
26720;PMS1003;15950;51.112;6.966;2022-07-22T11:12:34;003;002;
26720;PMS1003;15950;51.112;6.966;2022-07-22T11:14:35;009;006;
26720;PMS1003;15950;51.112;6.966;2022-07-22T11:16:35;006;005;
26720;PMS1003;15950;51.112;6.966;2022-07-22T11:20:36;005;003;
26720;PMS1003;15950;51.112;6.966;2022-07-22T11:22:36;007;005;
26720;PMS1003;15950;51.112;6.966;2022-07-22T11:24:37;003;002;
26720;PMS1003;15950;51.112;6.966;2022-07-22T11:28:40;006;004;
26720;PMS1003;15950;51.112;6.966;2022-07-22T11:30:37;005;003;
26720;PMS1003;15950;51.112;6.966;2022-07-22T11:32:41;006;005;
26720;PMS1003;15950;51.112;6.966;2022-07-22T11:34:39;007;005;
26720;PMS1003;15950;51.112;6.966;2022-07-22T11:36:39;007;005;
26720;PMS1003;15950;51.112;6.966;2022-07-22T11:38:42;009;007;
26720;PMS1003;15950;51.112;6.966;2022-07-22T11:40:38;006;005;
26720;PMS1003;15950;51.112;6.966;2022-07-22T11:42:39;009;006;
26720;PMS1003;15950;51.112;6.966;2022-07-22T11:44:39;009;006;
26720;PMS1003;15950;51.112;6.966;2022-07-22T11:46:40;009;006;
26720;PMS1003;15950;51.112;6.966;2022-07-22T11:48:40;009;007;
26720;PMS1003;15950;51.112;6.966;2022-07-22T11:50:40;012;009;
26720;PMS1003;15950;51.112;6.966;2022-07-22T11:52:51;010;007;
26720;PMS1003;15950;51.112;6.966;2022-07-22T11:54:41;009;006;
26720;PMS1003;15950;51.112;6.966;2022-07-22T11:56:41;009;006;
26720;PMS1003;15950;51.112;6.966;2022-07-22T11:58:44;009;006;
26720;PMS1003;15950;51.112;6.966;2022-07-22T12:00:41;009;007;
26720;PMS1003;15950;51.112;6.966;2022-07-22T12:02:42;008;006;
26720;PMS1003;15950;51.112;6.966;2022-07-22T12:04:42;009;006;
26720;PMS1003;15950;51.112;6.966;2022-07-22T12:06:43;009;006;
26720;PMS1003;15950;51.112;6.966;2022-07-22T12:08:45;010;007;
26720;PMS1003;15950;51.112;6.966;2022-07-22T12:10:44;007;005;
26720;PMS1003;15950;51.112;6.966;2022-07-22T12:12:46;007;005;
26720;PMS1003;15950;51.112;6.966;2022-07-22T12:14:45;010;007;
26720;PMS1003;15950;51.112;6.966;2022-07-22T12:20:46;006;004;
26720;PMS1003;15950;51.112;6.966;2022-07-22T12:22:46;010;007;
26720;PMS1003;15950;51.112;6.966;2022-07-22T12:24:56;009;006;
26720;PMS1003;15950;51.112;6.966;2022-07-22T12:26:47;007;006;
26720;PMS1003;15950;51.112;6.966;2022-07-22T12:28:47;014;011;
26720;PMS1003;15950;51.112;6.966;2022-07-22T12:30:48;013;009;
26720;PMS1003;15950;51.112;6.966;2022-07-22T12:32:47;010;007;
26720;PMS1003;15950;51.112;6.966;2022-07-22T12:36:48;009;007;
26720;PMS1003;15950;51.112;6.966;2022-07-22T12:38:48;010;007;
26720;PMS1003;15950;51.112;6.966;2022-07-22T12:40:48;010;007;
26720;PMS1003;15950;51.112;6.966;2022-07-22T12:44:50;008;007;
26720;PMS1003;15950;51.112;6.966;2022-07-22T12:46:50;011;008;
26720;PMS1003;15950;51.112;6.966;2022-07-22T12:48:50;009;007;
26720;PMS1003;15950;51.112;6.966;2022-07-22T12:50:54;007;005;
26720;PMS1003;15950;51.112;6.966;2022-07-22T12:53:01;012;010;
26720;PMS1003;15950;51.112;6.966;2022-07-22T12:54:52;008;006;
26720;PMS1003;15950;51.112;6.966;2022-07-22T12:56:52;012;008;
26720;PMS1003;15950;51.112;6.966;2022-07-22T12:58:52;011;009;
26720;PMS1003;15950;51.112;6.966;2022-07-22T13:00:54;009;007;
26720;PMS1003;15950;51.112;6.966;2022-07-22T13:02:53;012;009;
26720;PMS1003;15950;51.112;6.966;2022-07-22T13:04:53;012;008;
26720;PMS1003;15950;51.112;6.966;2022-07-22T13:06:53;013;009;
26720;PMS1003;15950;51.112;6.966;2022-07-22T13:08:54;012;010;
26720;PMS1003;15950;51.112;6.966;2022-07-22T13:10:54;007;005;
26720;PMS1003;15950;51.112;6.966;2022-07-22T13:12:54;010;007;
26720;PMS1003;15950;51.112;6.966;2022-07-22T13:14:55;013;009;
26720;PMS1003;15950;51.112;6.966;2022-07-22T13:16:55;010;007;
26720;PMS1003;15950;51.112;6.966;2022-07-22T13:18:55;009;007;
26720;PMS1003;15950;51.112;6.966;2022-07-22T13:20:56;013;009;
26720;PMS1003;15950;51.112;6.966;2022-07-22T13:22:56;007;005;
26720;PMS1003;15950;51.112;6.966;2022-07-22T13:24:56;014;010;
26720;PMS1003;15950;51.112;6.966;2022-07-22T13:26:56;012;009;
26720;PMS1003;15950;51.112;6.966;2022-07-22T13:28:57;015;011;
26720;PMS1003;15950;51.112;6.966;2022-07-22T13:30:57;010;008;
26720;PMS1003;15950;51.112;6.966;2022-07-22T13:32:57;014;010;
26720;PMS1003;15950;51.112;6.966;2022-07-22T13:34:58;014;010;
26720;PMS1003;15950;51.112;6.966;2022-07-22T13:36:59;016;011;